Flight Track Log - Related Links

Times and Time Zones

All times are in EDT time to prevent confusion due to time zone crossing. See the AAR1085 flight status page for this flight to view local times or setup timezone preferences in your user account.

Time Position Orientation Groundspeed Altitude Reporting Facility
EDT Latitude Longitude Course Direction KTS MPH feet Rate Location/Type
Fri 07:13:32 AM 37.5367 127.0120 97° East  Level Estimated
Fri 07:14:32 AM 37.5224 127.1563 97° East  Level Estimated
Fri 07:15:32 AM 37.5078 127.3006 97° East  Level Estimated
Fri 07:16:32 AM 37.4932 127.4448 97° East  Level Estimated
Fri 07:17:32 AM 37.4783 127.5890 97° East  Level Estimated
Fri 07:18:32 AM 37.4633 127.7330 98° East  Level Estimated
Fri 07:19:32 AM 37.4481 127.8771 98° East  Level Estimated
Fri 07:20:32 AM 37.4327 128.0211 98° East  Level Estimated
Fri 07:21:32 AM 37.4171 128.1650 98° East  Level Estimated
Fri 07:22:32 AM 37.4014 128.3089 98° East  Level Estimated
Fri 07:23:32 AM 37.3855 128.4527 98° East  Level Estimated
Fri 07:24:32 AM 37.3694 128.5964 98° East  Level Estimated
Fri 07:25:32 AM 37.3532 128.7401 98° East  Level Estimated
Fri 07:26:32 AM 37.3367 128.8837 98° East  Level Estimated
Fri 07:27:32 AM 37.3201 129.0272 98° East  Level Estimated
Fri 07:28:32 AM 37.3034 129.1707 98° East  Level Estimated
Fri 07:29:32 AM 37.2864 129.3141 98° East  Level Estimated
Fri 07:30:32 AM 37.2693 129.4575 99° East  Level Estimated
Fri 07:31:32 AM 37.2520 129.6008 99° East  Level Estimated
Fri 07:32:32 AM 37.2346 129.7440 99° East  Level Estimated
Fri 07:33:32 AM 37.2169 129.8872 99° East  Level Estimated
Fri 07:34:32 AM 37.1991 130.0302 99° East  Level Estimated
Fri 07:35:32 AM 37.1811 130.1733 99° East  Level Estimated
Fri 07:36:32 AM 37.1630 130.3162 99° East  Level Estimated
Fri 07:37:32 AM 37.1447 130.4591 99° East  Level Estimated
Fri 07:38:32 AM 37.1262 130.6019 99° East  Level Estimated
Fri 07:39:32 AM 37.1075 130.7447 99° East  Level Estimated
Fri 07:40:32 AM 37.0887 130.8873 99° East  Level Estimated
Fri 07:41:32 AM 37.0696 131.0299 100° East  Level Estimated
Fri 07:42:32 AM 37.0505 131.1725 100° East  Level Estimated
Fri 07:43:32 AM 37.0311 131.3149 100° East  Level Estimated
Fri 07:44:32 AM 37.0116 131.4573 100° East  Level Estimated
Fri 07:45:32 AM 36.9919 131.5996 100° East  Level Estimated
Fri 07:46:32 AM 36.9720 131.7419 100° East  Level Estimated
Fri 07:47:32 AM 36.9520 131.8840 100° East  Level Estimated
Fri 07:48:32 AM 36.9318 132.0261 100° East  Level Estimated
Fri 07:49:32 AM 36.9114 132.1681 100° East  Level Estimated
Fri 07:50:32 AM 36.8909 132.3101 100° East  Level Estimated
Fri 07:51:32 AM 36.8702 132.4519 100° East  Level Estimated
Fri 07:52:32 AM 36.8493 132.5937 100° East  Level Estimated
Fri 07:53:32 AM 36.8283 132.7354 101° East  Level Estimated
Fri 07:54:32 AM 36.8071 132.8771 101° East  Level Estimated
Fri 07:55:32 AM 36.7857 133.0186 101° East  Level Estimated
Fri 07:56:32 AM 36.7642 133.1601 101° East  Level Estimated
Fri 07:57:32 AM 36.7425 133.3015 101° East  Level Estimated
Fri 07:58:32 AM 36.7206 133.4428 101° East  Level Estimated
Fri 07:59:32 AM 36.6985 133.5840 101° East  Level Estimated
Fri 08:00:32 AM 36.6763 133.7252 101° East  Level Estimated
Fri 08:01:32 AM 36.6539 133.8662 101° East  Level Estimated
Fri 08:02:32 AM 36.6314 134.0072 101° East  Level Estimated
Fri 08:03:32 AM 36.6087 134.1481 101° East  Level Estimated
Fri 08:04:32 AM 36.5858 134.2889 101° East  Level Estimated
Fri 08:05:32 AM 36.5628 134.4297 102° East  Level Estimated
Fri 08:06:32 AM 36.5395 134.5703 102° East  Level Estimated
Fri 08:07:32 AM 36.5162 134.7109 102° East  Level Estimated
Fri 08:08:32 AM 36.4926 134.8514 102° East  Level Estimated
Fri 08:09:32 AM 36.4689 134.9918 102° East  Level Estimated
Fri 08:10:32 AM 36.4451 135.1321 102° East  Level Estimated
Fri 08:11:32 AM 36.4210 135.2723 102° East  Level Estimated
Fri 08:12:32 AM 36.3968 135.4125 102° East  Level Estimated
Fri 08:13:32 AM 36.3725 135.5525 102° East  Level Estimated
Fri 08:14:32 AM 36.3479 135.6925 102° East  Level Estimated
Fri 08:15:32 AM 36.3233 135.8324 102° East  Level Estimated
Fri 08:16:32 AM 36.2984 135.9721 102° East  Level Estimated
Fri 08:17:32 AM 36.2734 136.1118 103° East  Level Estimated
Fri 08:18:32 AM 36.2482 136.2514 103° East  Level Estimated
Fri 08:19:32 AM 36.2229 136.3909 103° East  Level Estimated
Fri 08:20:32 AM 36.1974 136.5304 103° East  Level Estimated
Fri 08:21:32 AM 36.1717 136.6697 103° East  Level Estimated
Fri 08:22:32 AM 36.1459 136.8089 103° East  Level Estimated
Fri 08:23:32 AM 36.1199 136.9481 103° East  Level Estimated
Fri 08:24:32 AM 36.0938 137.0871 103° East  Level Estimated
Fri 08:25:32 AM 36.0675 137.2261 103° East  Level Estimated
Fri 08:26:32 AM 36.0410 137.3650 103° East  Level Estimated
Fri 08:27:32 AM 36.0144 137.5037 103° East  Level Estimated
Fri 08:28:32 AM 35.9876 137.6424 103° East  Level Estimated
Fri 08:29:32 AM 35.9607 137.7810 104° East  Level Estimated
Fri 08:30:32 AM 35.9336 137.9195 104° East  Level Estimated
Fri 08:31:32 AM 35.9063 138.0579 104° East  Level Estimated
Fri 08:32:32 AM 35.8789 138.1962 104° East  Level Estimated
Fri 08:33:32 AM 35.8513 138.3344 104° East  Level Estimated
Fri 08:34:32 AM 35.8236 138.4725 104° East  Level Estimated
Fri 08:35:32 AM 35.7957 138.6105 104° East  Level Estimated
Fri 08:36:32 AM 35.7677 138.7484 104° East  Level Estimated
Fri 08:37:32 AM 35.7394 138.8862 104° East  Level Estimated
Fri 08:38:32 AM 35.7111 139.0240 104° East  Level Estimated
Fri 08:39:32 AM 35.6825 139.1616 104° East  Level Estimated
Fri 08:40:32 AM 35.6539 139.2991 104° East  Level Estimated
Fri 08:41:32 AM 35.6250 139.4365 105° East  Level Estimated
Fri 08:42:32 AM 35.5960 139.5739 105° East  Level Estimated
Fri 08:43:32 AM 35.5669 139.7111 105° East  Level Estimated
Fri 08:44:32 AM 35.5376 139.8482 285° West  Level Estimated
Fri 08:45:32 AM 35.5669 139.7111 105° East  Level Estimated
Fri 08:46:32 AM 35.5376 139.8482 285° West  Level Estimated
Fri 08:47:32 AM 35.5669 139.7111 105° East  Level Estimated
Fri 08:48:32 AM 35.5376 139.8482 285° West  Level Estimated
Fri 08:49:32 AM 35.5669 139.7111 105° East  Level Estimated
Fri 08:50:32 AM 35.5376 139.8482 285° West  Level Estimated
Fri 08:51:32 AM 35.5669 139.7111 105° East  Level Estimated
Fri 08:52:32 AM 35.5376 139.8482 285° West  Level Estimated
Fri 08:53:32 AM 35.5669 139.7111 105° East  Level Estimated
Fri 08:54:32 AM 35.5376 139.8482 285° West  Level Estimated
Fri 08:55:32 AM 35.5669 139.7111 105° East  Level Estimated
Fri 08:56:32 AM 35.5376 139.8482 285° West  Level Estimated
Fri 08:57:32 AM 35.5669 139.7111 105° East  Level Estimated
Fri 08:58:32 AM 35.5376 139.8482 285° West  Level Estimated
Fri 08:59:32 AM 35.5669 139.7111 285° West  Level Estimated

Login

Don't have an account? Register now (free) for customized features, flight alerts, and more!